sensor_id;sensor_type;location;lat;lon;timestamp;P1;durP1;ratioP1;P2;durP2;ratioP2
37445;SDS011;23307;51.136;14.942;2022-11-15T00:01:29;21.23;;;16.55;;
37445;SDS011;23307;51.136;14.942;2022-11-15T00:03:57;21.50;;;15.77;;
37445;SDS011;23307;51.136;14.942;2022-11-15T00:06:27;23.05;;;17.17;;
37445;SDS011;23307;51.136;14.942;2022-11-15T00:08:52;21.65;;;16.30;;
37445;SDS011;23307;51.136;14.942;2022-11-15T00:11:18;22.15;;;17.23;;
37445;SDS011;23307;51.136;14.942;2022-11-15T00:13:44;21.95;;;16.95;;
37445;SDS011;23307;51.136;14.942;2022-11-15T00:16:09;22.50;;;18.02;;
37445;SDS011;23307;51.136;14.942;2022-11-15T00:18:35;21.83;;;17.50;;
37445;SDS011;23307;51.136;14.942;2022-11-15T00:21:03;23.98;;;17.95;;
37445;SDS011;23307;51.136;14.942;2022-11-15T00:23:37;22.67;;;17.67;;
37445;SDS011;23307;51.136;14.942;2022-11-15T00:26:13;23.85;;;17.55;;
37445;SDS011;23307;51.136;14.942;2022-11-15T00:28:43;23.33;;;17.17;;
37445;SDS011;23307;51.136;14.942;2022-11-15T00:31:12;23.40;;;17.77;;
37445;SDS011;23307;51.136;14.942;2022-11-15T00:33:44;21.50;;;16.65;;
37445;SDS011;23307;51.136;14.942;2022-11-15T00:36:10;21.52;;;16.98;;
37445;SDS011;23307;51.136;14.942;2022-11-15T00:38:40;22.38;;;16.92;;
37445;SDS011;23307;51.136;14.942;2022-11-15T00:41:06;21.52;;;17.27;;
37445;SDS011;23307;51.136;14.942;2022-11-15T00:43:38;21.73;;;16.73;;
37445;SDS011;23307;51.136;14.942;2022-11-15T00:46:12;22.85;;;17.20;;
37445;SDS011;23307;51.136;14.942;2022-11-15T00:48:43;20.50;;;16.60;;
37445;SDS011;23307;51.136;14.942;2022-11-15T00:51:09;23.67;;;18.15;;
37445;SDS011;23307;51.136;14.942;2022-11-15T00:53:38;20.55;;;16.92;;
37445;SDS011;23307;51.136;14.942;2022-11-15T00:56:07;24.38;;;18.05;;
37445;SDS011;23307;51.136;14.942;2022-11-15T00:58:40;20.08;;;17.33;;
37445;SDS011;23307;51.136;14.942;2022-11-15T01:01:13;23.00;;;17.17;;
37445;SDS011;23307;51.136;14.942;2022-11-15T01:03:40;22.10;;;17.08;;
37445;SDS011;23307;51.136;14.942;2022-11-15T01:06:07;21.02;;;16.52;;
37445;SDS011;23307;51.136;14.942;2022-11-15T01:08:33;21.98;;;16.88;;
37445;SDS011;23307;51.136;14.942;2022-11-15T01:11:09;22.30;;;16.73;;
37445;SDS011;23307;51.136;14.942;2022-11-15T01:13:43;22.15;;;17.83;;
37445;SDS011;23307;51.136;14.942;2022-11-15T01:16:10;22.40;;;17.58;;
37445;SDS011;23307;51.136;14.942;2022-11-15T01:18:47;23.48;;;16.73;;
37445;SDS011;23307;51.136;14.942;2022-11-15T01:21:14;22.77;;;17.30;;
37445;SDS011;23307;51.136;14.942;2022-11-15T01:23:48;21.38;;;16.55;;
37445;SDS011;23307;51.136;14.942;2022-11-15T01:26:21;23.45;;;17.98;;
37445;SDS011;23307;51.136;14.942;2022-11-15T01:28:58;22.80;;;17.05;;
37445;SDS011;23307;51.136;14.942;2022-11-15T01:31:26;22.52;;;16.80;;
37445;SDS011;23307;51.136;14.942;2022-11-15T01:33:54;20.20;;;16.67;;
37445;SDS011;23307;51.136;14.942;2022-11-15T01:36:35;22.33;;;17.35;;
37445;SDS011;23307;51.136;14.942;2022-11-15T01:39:03;22.40;;;16.88;;
37445;SDS011;23307;51.136;14.942;2022-11-15T01:41:38;22.40;;;16.98;;
37445;SDS011;23307;51.136;14.942;2022-11-15T01:49:50;23.45;;;17.15;;
37445;SDS011;23307;51.136;14.942;2022-11-15T01:52:38;23.40;;;17.90;;
37445;SDS011;23307;51.136;14.942;2022-11-15T01:55:12;21.57;;;17.03;;
37445;SDS011;23307;51.136;14.942;2022-11-15T01:57:46;22.73;;;16.77;;
37445;SDS011;23307;51.136;14.942;2022-11-15T02:00:15;22.77;;;17.40;;
37445;SDS011;23307;51.136;14.942;2022-11-15T02:02:41;21.70;;;16.83;;
37445;SDS011;23307;51.136;14.942;2022-11-15T02:05:13;25.08;;;17.88;;
37445;SDS011;23307;51.136;14.942;2022-11-15T02:07:40;22.67;;;17.70;;
37445;SDS011;23307;51.136;14.942;2022-11-15T02:10:10;21.50;;;16.63;;
37445;SDS011;23307;51.136;14.942;2022-11-15T02:12:38;22.33;;;17.50;;
37445;SDS011;23307;51.136;14.942;2022-11-15T02:15:06;22.25;;;17.33;;
37445;SDS011;23307;51.136;14.942;2022-11-15T02:25:47;21.23;;;16.77;;
37445;SDS011;23307;51.136;14.942;2022-11-15T02:33:58;21.00;;;16.75;;
37445;SDS011;23307;51.136;14.942;2022-11-15T02:42:06;24.58;;;17.50;;
37445;SDS011;23307;51.136;14.942;2022-11-15T02:44:55;23.15;;;17.80;;
37445;SDS011;23307;51.136;14.942;2022-11-15T02:47:22;22.95;;;18.35;;
37445;SDS011;23307;51.136;14.942;2022-11-15T02:49:53;25.48;;;18.40;;
37445;SDS011;23307;51.136;14.942;2022-11-15T02:52:23;27.10;;;19.13;;
37445;SDS011;23307;51.136;14.942;2022-11-15T02:54:56;27.50;;;19.42;;
37445;SDS011;23307;51.136;14.942;2022-11-15T03:00:19;25.85;;;18.70;;
37445;SDS011;23307;51.136;14.942;2022-11-15T03:05:42;25.52;;;17.50;;
37445;SDS011;23307;51.136;14.942;2022-11-15T03:10:42;23.20;;;17.90;;
37445;SDS011;23307;51.136;14.942;2022-11-15T03:13:21;24.53;;;18.53;;
37445;SDS011;23307;51.136;14.942;2022-11-15T03:18:44;25.27;;;19.00;;
37445;SDS011;23307;51.136;14.942;2022-11-15T03:21:20;25.20;;;19.10;;
37445;SDS011;23307;51.136;14.942;2022-11-15T03:23:47;25.87;;;18.17;;
37445;SDS011;23307;51.136;14.942;2022-11-15T03:26:15;24.57;;;18.87;;
37445;SDS011;23307;51.136;14.942;2022-11-15T03:28:45;26.97;;;19.20;;
37445;SDS011;23307;51.136;14.942;2022-11-15T03:31:17;26.57;;;19.53;;
37445;SDS011;23307;51.136;14.942;2022-11-15T03:34:04;29.37;;;19.97;;
37445;SDS011;23307;51.136;14.942;2022-11-15T03:36:34;27.03;;;19.37;;
37445;SDS011;23307;51.136;14.942;2022-11-15T03:39:01;28.17;;;19.93;;
37445;SDS011;23307;51.136;14.942;2022-11-15T03:41:35;32.13;;;20.50;;
37445;SDS011;23307;51.136;14.942;2022-11-15T03:44:31;27.60;;;19.73;;
37445;SDS011;23307;51.136;14.942;2022-11-15T03:49:43;26.03;;;19.33;;
37445;SDS011;23307;51.136;14.942;2022-11-15T03:52:11;25.17;;;19.50;;
37445;SDS011;23307;51.136;14.942;2022-11-15T03:54:47;27.20;;;20.33;;
37445;SDS011;23307;51.136;14.942;2022-11-15T03:57:14;27.57;;;20.67;;
37445;SDS011;23307;51.136;14.942;2022-11-15T03:59:39;27.58;;;20.90;;
37445;SDS011;23307;51.136;14.942;2022-11-15T04:02:05;25.37;;;19.40;;
37445;SDS011;23307;51.136;14.942;2022-11-15T04:04:30;28.83;;;20.17;;
37445;SDS011;23307;51.136;14.942;2022-11-15T04:06:56;27.55;;;20.42;;
37445;SDS011;23307;51.136;14.942;2022-11-15T04:09:21;27.17;;;20.37;;
37445;SDS011;23307;51.136;14.942;2022-11-15T04:11:47;26.27;;;19.43;;
37445;SDS011;23307;51.136;14.942;2022-11-15T04:14:12;27.00;;;20.27;;
37445;SDS011;23307;51.136;14.942;2022-11-15T04:16:41;27.63;;;20.43;;
37445;SDS011;23307;51.136;14.942;2022-11-15T04:19:10;25.43;;;19.43;;
37445;SDS011;23307;51.136;14.942;2022-11-15T04:21:54;28.53;;;20.53;;
37445;SDS011;23307;51.136;14.942;2022-11-15T04:24:47;29.20;;;22.13;;
37445;SDS011;23307;51.136;14.942;2022-11-15T04:27:15;28.97;;;19.70;;
37445;SDS011;23307;51.136;14.942;2022-11-15T04:29:41;26.90;;;20.37;;
37445;SDS011;23307;51.136;14.942;2022-11-15T04:32:07;26.43;;;19.30;;
37445;SDS011;23307;51.136;14.942;2022-11-15T04:34:36;27.00;;;19.30;;
37445;SDS011;23307;51.136;14.942;2022-11-15T04:37:03;27.00;;;20.43;;
37445;SDS011;23307;51.136;14.942;2022-11-15T04:39:44;28.20;;;20.07;;
37445;SDS011;23307;51.136;14.942;2022-11-15T04:42:09;26.20;;;18.70;;
37445;SDS011;23307;51.136;14.942;2022-11-15T04:44:38;28.80;;;19.20;;
37445;SDS011;23307;51.136;14.942;2022-11-15T04:47:04;27.80;;;18.67;;
37445;SDS011;23307;51.136;14.942;2022-11-15T04:49:41;28.80;;;20.80;;
37445;SDS011;23307;51.136;14.942;2022-11-15T04:52:15;27.43;;;20.07;;
37445;SDS011;23307;51.136;14.942;2022-11-15T04:54:41;29.13;;;20.80;;
37445;SDS011;23307;51.136;14.942;2022-11-15T04:57:07;27.50;;;19.27;;
37445;SDS011;23307;51.136;14.942;2022-11-15T04:59:39;23.90;;;16.67;;
37445;SDS011;23307;51.136;14.942;2022-11-15T05:02:14;28.53;;;20.07;;
37445;SDS011;23307;51.136;14.942;2022-11-15T05:04:47;28.33;;;20.67;;
37445;SDS011;23307;51.136;14.942;2022-11-15T05:07:22;25.50;;;18.73;;
37445;SDS011;23307;51.136;14.942;2022-11-15T05:09:49;28.13;;;19.57;;
37445;SDS011;23307;51.136;14.942;2022-11-15T05:12:14;27.33;;;19.60;;
37445;SDS011;23307;51.136;14.942;2022-11-15T05:14:49;27.37;;;19.53;;
37445;SDS011;23307;51.136;14.942;2022-11-15T05:17:14;26.47;;;19.13;;
37445;SDS011;23307;51.136;14.942;2022-11-15T05:19:43;30.40;;;20.63;;
37445;SDS011;23307;51.136;14.942;2022-11-15T05:22:11;29.53;;;19.70;;
37445;SDS011;23307;51.136;14.942;2022-11-15T05:24:40;26.53;;;19.03;;
37445;SDS011;23307;51.136;14.942;2022-11-15T05:27:05;25.73;;;19.23;;
37445;SDS011;23307;51.136;14.942;2022-11-15T05:29:34;26.57;;;18.37;;
37445;SDS011;23307;51.136;14.942;2022-11-15T05:32:00;28.10;;;19.03;;
37445;SDS011;23307;51.136;14.942;2022-11-15T05:34:42;25.50;;;19.63;;
37445;SDS011;23307;51.136;14.942;2022-11-15T05:40:30;22.50;;;17.20;;
37445;SDS011;23307;51.136;14.942;2022-11-15T05:42:57;23.83;;;17.60;;
37445;SDS011;23307;51.136;14.942;2022-11-15T05:45:26;28.63;;;19.37;;
37445;SDS011;23307;51.136;14.942;2022-11-15T05:47:54;24.57;;;18.27;;
37445;SDS011;23307;51.136;14.942;2022-11-15T05:50:21;26.37;;;18.67;;
37445;SDS011;23307;51.136;14.942;2022-11-15T05:52:47;24.33;;;18.17;;
37445;SDS011;23307;51.136;14.942;2022-11-15T05:55:13;25.93;;;18.77;;
37445;SDS011;23307;51.136;14.942;2022-11-15T05:57:39;25.33;;;18.47;;
37445;SDS011;23307;51.136;14.942;2022-11-15T06:00:05;23.27;;;16.73;;
37445;SDS011;23307;51.136;14.942;2022-11-15T06:02:32;26.37;;;17.77;;
37445;SDS011;23307;51.136;14.942;2022-11-15T06:04:58;26.40;;;17.20;;
37445;SDS011;23307;51.136;14.942;2022-11-15T06:07:24;24.83;;;17.93;;
37445;SDS011;23307;51.136;14.942;2022-11-15T06:09:49;26.33;;;18.00;;
37445;SDS011;23307;51.136;14.942;2022-11-15T06:12:15;24.47;;;18.37;;
37445;SDS011;23307;51.136;14.942;2022-11-15T06:14:40;26.50;;;17.83;;
37445;SDS011;23307;51.136;14.942;2022-11-15T06:17:06;23.53;;;16.77;;
37445;SDS011;23307;51.136;14.942;2022-11-15T06:19:31;23.97;;;17.53;;
37445;SDS011;23307;51.136;14.942;2022-11-15T06:21:58;23.70;;;17.37;;
37445;SDS011;23307;51.136;14.942;2022-11-15T06:24:24;23.93;;;18.33;;
37445;SDS011;23307;51.136;14.942;2022-11-15T06:26:50;23.93;;;17.57;;
37445;SDS011;23307;51.136;14.942;2022-11-15T06:29:16;27.47;;;19.03;;
37445;SDS011;23307;51.136;14.942;2022-11-15T06:31:41;23.17;;;17.73;;
37445;SDS011;23307;51.136;14.942;2022-11-15T06:34:07;24.70;;;18.50;;
37445;SDS011;23307;51.136;14.942;2022-11-15T06:36:34;24.50;;;17.77;;
37445;SDS011;23307;51.136;14.942;2022-11-15T06:39:00;25.63;;;18.70;;
37445;SDS011;23307;51.136;14.942;2022-11-15T06:41:25;25.13;;;18.80;;
37445;SDS011;23307;51.136;14.942;2022-11-15T06:43:51;24.83;;;18.07;;
37445;SDS011;23307;51.136;14.942;2022-11-15T06:46:16;25.53;;;18.30;;
37445;SDS011;23307;51.136;14.942;2022-11-15T06:48:42;26.17;;;18.93;;
37445;SDS011;23307;51.136;14.942;2022-11-15T06:51:07;23.67;;;17.38;;
37445;SDS011;23307;51.136;14.942;2022-11-15T06:53:33;23.60;;;17.37;;
37445;SDS011;23307;51.136;14.942;2022-11-15T06:55:59;25.50;;;19.33;;
37445;SDS011;23307;51.136;14.942;2022-11-15T06:58:29;25.33;;;18.67;;
37445;SDS011;23307;51.136;14.942;2022-11-15T07:00:59;24.57;;;17.20;;
37445;SDS011;23307;51.136;14.942;2022-11-15T07:03:34;24.33;;;18.03;;
37445;SDS011;23307;51.136;14.942;2022-11-15T07:06:01;23.90;;;18.30;;
37445;SDS011;23307;51.136;14.942;2022-11-15T07:08:27;24.15;;;17.88;;
37445;SDS011;23307;51.136;14.942;2022-11-15T07:10:54;25.63;;;18.70;;
37445;SDS011;23307;51.136;14.942;2022-11-15T07:13:25;23.67;;;17.53;;
37445;SDS011;23307;51.136;14.942;2022-11-15T07:15:51;24.15;;;17.48;;
37445;SDS011;23307;51.136;14.942;2022-11-15T07:18:17;24.25;;;16.95;;
37445;SDS011;23307;51.136;14.942;2022-11-15T07:20:43;23.00;;;16.90;;
37445;SDS011;23307;51.136;14.942;2022-11-15T07:23:08;22.67;;;16.90;;
37445;SDS011;23307;51.136;14.942;2022-11-15T07:25:34;24.50;;;16.80;;
37445;SDS011;23307;51.136;14.942;2022-11-15T07:27:59;24.07;;;17.20;;
37445;SDS011;23307;51.136;14.942;2022-11-15T07:30:25;23.75;;;16.70;;
37445;SDS011;23307;51.136;14.942;2022-11-15T07:32:52;24.17;;;16.33;;
37445;SDS011;23307;51.136;14.942;2022-11-15T07:35:22;23.83;;;18.35;;
37445;SDS011;23307;51.136;14.942;2022-11-15T07:37:55;23.90;;;17.42;;
37445;SDS011;23307;51.136;14.942;2022-11-15T07:40:25;24.80;;;19.05;;
37445;SDS011;23307;51.136;14.942;2022-11-15T07:42:52;23.63;;;18.10;;
37445;SDS011;23307;51.136;14.942;2022-11-15T07:45:17;24.98;;;19.23;;
37445;SDS011;23307;51.136;14.942;2022-11-15T07:47:47;23.25;;;17.92;;
37445;SDS011;23307;51.136;14.942;2022-11-15T07:50:13;26.25;;;18.05;;
37445;SDS011;23307;51.136;14.942;2022-11-15T07:52:38;25.27;;;18.70;;
37445;SDS011;23307;51.136;14.942;2022-11-15T07:55:04;24.73;;;18.80;;
37445;SDS011;23307;51.136;14.942;2022-11-15T07:57:30;24.20;;;17.30;;
37445;SDS011;23307;51.136;14.942;2022-11-15T07:59:55;24.65;;;16.98;;
37445;SDS011;23307;51.136;14.942;2022-11-15T08:02:21;24.52;;;18.00;;
37445;SDS011;23307;51.136;14.942;2022-11-15T08:04:47;23.83;;;17.75;;
37445;SDS011;23307;51.136;14.942;2022-11-15T08:07:12;25.27;;;19.05;;
37445;SDS011;23307;51.136;14.942;2022-11-15T08:09:38;24.30;;;17.83;;
37445;SDS011;23307;51.136;14.942;2022-11-15T08:12:03;25.77;;;17.73;;
37445;SDS011;23307;51.136;14.942;2022-11-15T08:14:29;24.10;;;17.95;;
37445;SDS011;23307;51.136;14.942;2022-11-15T08:16:55;24.55;;;18.85;;
37445;SDS011;23307;51.136;14.942;2022-11-15T08:19:20;25.40;;;18.05;;
37445;SDS011;23307;51.136;14.942;2022-11-15T08:21:46;25.70;;;18.17;;
37445;SDS011;23307;51.136;14.942;2022-11-15T08:24:12;25.25;;;17.20;;
37445;SDS011;23307;51.136;14.942;2022-11-15T08:26:37;23.55;;;17.48;;
37445;SDS011;23307;51.136;14.942;2022-11-15T08:29:03;24.50;;;18.27;;
37445;SDS011;23307;51.136;14.942;2022-11-15T08:31:28;25.23;;;18.83;;
37445;SDS011;23307;51.136;14.942;2022-11-15T08:33:54;25.50;;;18.25;;
37445;SDS011;23307;51.136;14.942;2022-11-15T08:36:20;24.30;;;17.58;;
37445;SDS011;23307;51.136;14.942;2022-11-15T08:38:45;24.73;;;17.85;;
37445;SDS011;23307;51.136;14.942;2022-11-15T08:41:12;21.80;;;17.38;;
37445;SDS011;23307;51.136;14.942;2022-11-15T08:43:43;24.08;;;17.58;;
37445;SDS011;23307;51.136;14.942;2022-11-15T08:46:10;23.52;;;17.42;;
37445;SDS011;23307;51.136;14.942;2022-11-15T08:48:37;23.38;;;17.42;;
37445;SDS011;23307;51.136;14.942;2022-11-15T08:51:03;22.80;;;17.23;;
37445;SDS011;23307;51.136;14.942;2022-11-15T08:53:29;24.42;;;18.05;;
37445;SDS011;23307;51.136;14.942;2022-11-15T08:55:54;23.08;;;17.05;;
37445;SDS011;23307;51.136;14.942;2022-11-15T08:58:20;24.42;;;16.67;;
37445;SDS011;23307;51.136;14.942;2022-11-15T09:00:45;22.88;;;17.52;;
37445;SDS011;23307;51.136;14.942;2022-11-15T09:03:11;23.20;;;17.98;;
37445;SDS011;23307;51.136;14.942;2022-11-15T09:05:36;23.65;;;17.42;;
37445;SDS011;23307;51.136;14.942;2022-11-15T09:08:02;23.60;;;17.33;;
37445;SDS011;23307;51.136;14.942;2022-11-15T09:10:28;21.58;;;15.73;;
37445;SDS011;23307;51.136;14.942;2022-11-15T09:12:56;22.27;;;16.75;;
37445;SDS011;23307;51.136;14.942;2022-11-15T09:15:22;22.88;;;16.23;;
37445;SDS011;23307;51.136;14.942;2022-11-15T09:17:48;21.90;;;16.90;;
37445;SDS011;23307;51.136;14.942;2022-11-15T09:20:13;20.80;;;16.38;;
37445;SDS011;23307;51.136;14.942;2022-11-15T09:22:39;24.55;;;17.92;;
37445;SDS011;23307;51.136;14.942;2022-11-15T09:25:05;21.30;;;16.65;;
37445;SDS011;23307;51.136;14.942;2022-11-15T09:27:31;21.90;;;16.50;;
37445;SDS011;23307;51.136;14.942;2022-11-15T09:29:57;21.65;;;16.10;;
37445;SDS011;23307;51.136;14.942;2022-11-15T09:32:23;23.65;;;16.25;;
37445;SDS011;23307;51.136;14.942;2022-11-15T09:34:51;22.20;;;16.58;;
37445;SDS011;23307;51.136;14.942;2022-11-15T09:37:17;24.08;;;16.40;;
37445;SDS011;23307;51.136;14.942;2022-11-15T09:39:42;20.88;;;15.50;;
37445;SDS011;23307;51.136;14.942;2022-11-15T09:47:20;23.17;;;16.40;;
37445;SDS011;23307;51.136;14.942;2022-11-15T09:50:11;19.33;;;15.23;;
37445;SDS011;23307;51.136;14.942;2022-11-15T09:52:41;21.58;;;16.20;;
37445;SDS011;23307;51.136;14.942;2022-11-15T09:55:12;22.55;;;16.08;;
37445;SDS011;23307;51.136;14.942;2022-11-15T10:00:22;20.77;;;15.95;;
37445;SDS011;23307;51.136;14.942;2022-11-15T10:03:14;21.00;;;15.63;;
37445;SDS011;23307;51.136;14.942;2022-11-15T10:06:01;22.05;;;16.13;;
37445;SDS011;23307;51.136;14.942;2022-11-15T10:11:17;19.80;;;14.73;;
37445;SDS011;23307;51.136;14.942;2022-11-15T10:13:46;18.23;;;14.90;;
37445;SDS011;23307;51.136;14.942;2022-11-15T10:16:21;19.60;;;15.55;;
37445;SDS011;23307;51.136;14.942;2022-11-15T10:21:19;17.85;;;14.40;;
37445;SDS011;23307;51.136;14.942;2022-11-15T10:23:46;21.05;;;15.88;;
37445;SDS011;23307;51.136;14.942;2022-11-15T10:26:14;19.58;;;16.27;;
37445;SDS011;23307;51.136;14.942;2022-11-15T10:28:41;20.45;;;16.05;;
37445;SDS011;23307;51.136;14.942;2022-11-15T10:31:24;17.23;;;14.85;;
37445;SDS011;23307;51.136;14.942;2022-11-15T10:33:51;20.38;;;14.73;;
37445;SDS011;23307;51.136;14.942;2022-11-15T10:36:36;19.05;;;15.15;;
37445;SDS011;23307;51.136;14.942;2022-11-15T10:39:01;20.48;;;15.38;;
37445;SDS011;23307;51.136;14.942;2022-11-15T10:46:33;20.45;;;15.05;;
37445;SDS011;23307;51.136;14.942;2022-11-15T10:49:11;19.00;;;15.75;;
37445;SDS011;23307;51.136;14.942;2022-11-15T10:51:40;18.75;;;15.30;;
37445;SDS011;23307;51.136;14.942;2022-11-15T10:54:09;20.38;;;16.83;;
37445;SDS011;23307;51.136;14.942;2022-11-15T10:56:38;20.27;;;16.05;;
37445;SDS011;23307;51.136;14.942;2022-11-15T10:59:12;22.77;;;17.48;;
37445;SDS011;23307;51.136;14.942;2022-11-15T11:01:47;19.05;;;15.25;;
37445;SDS011;23307;51.136;14.942;2022-11-15T11:04:13;19.85;;;15.63;;
37445;SDS011;23307;51.136;14.942;2022-11-15T11:06:50;19.27;;;15.93;;
37445;SDS011;23307;51.136;14.942;2022-11-15T11:11:59;19.08;;;14.38;;
37445;SDS011;23307;51.136;14.942;2022-11-15T11:14:26;17.60;;;14.52;;
37445;SDS011;23307;51.136;14.942;2022-11-15T11:19:31;16.65;;;13.65;;
37445;SDS011;23307;51.136;14.942;2022-11-15T11:22:03;17.85;;;14.73;;
37445;SDS011;23307;51.136;14.942;2022-11-15T11:24:33;16.35;;;14.52;;
37445;SDS011;23307;51.136;14.942;2022-11-15T11:30:06;18.83;;;14.85;;
37445;SDS011;23307;51.136;14.942;2022-11-15T11:32:48;18.08;;;13.98;;
37445;SDS011;23307;51.136;14.942;2022-11-15T11:37:56;17.52;;;14.73;;
37445;SDS011;23307;51.136;14.942;2022-11-15T11:40:39;18.45;;;15.25;;
37445;SDS011;23307;51.136;14.942;2022-11-15T11:43:19;17.38;;;14.40;;
37445;SDS011;23307;51.136;14.942;2022-11-15T11:46:13;17.38;;;13.88;;
37445;SDS011;23307;51.136;14.942;2022-11-15T11:48:51;18.25;;;14.88;;
37445;SDS011;23307;51.136;14.942;2022-11-15T11:57:59;17.35;;;14.38;;
37445;SDS011;23307;51.136;14.942;2022-11-15T12:00:38;17.10;;;14.48;;
37445;SDS011;23307;51.136;14.942;2022-11-15T12:03:19;17.63;;;14.23;;
37445;SDS011;23307;51.136;14.942;2022-11-15T12:06:01;18.50;;;14.70;;
37445;SDS011;23307;51.136;14.942;2022-11-15T12:08:50;21.83;;;16.60;;
37445;SDS011;23307;51.136;14.942;2022-11-15T12:11:26;18.30;;;15.45;;
37445;SDS011;23307;51.136;14.942;2022-11-15T12:13:59;18.73;;;15.82;;
37445;SDS011;23307;51.136;14.942;2022-11-15T12:16:29;18.90;;;14.63;;
37445;SDS011;23307;51.136;14.942;2022-11-15T12:18:58;18.90;;;15.38;;
37445;SDS011;23307;51.136;14.942;2022-11-15T12:24:13;19.00;;;15.88;;
37445;SDS011;23307;51.136;14.942;2022-11-15T12:26:56;17.90;;;14.88;;
37445;SDS011;23307;51.136;14.942;2022-11-15T12:29:31;19.00;;;14.43;;
37445;SDS011;23307;51.136;14.942;2022-11-15T12:32:04;18.38;;;15.77;;
37445;SDS011;23307;51.136;14.942;2022-11-15T12:34:38;17.92;;;15.40;;
37445;SDS011;23307;51.136;14.942;2022-11-15T12:45:00;19.92;;;16.77;;
37445;SDS011;23307;51.136;14.942;2022-11-15T12:47:26;19.90;;;16.45;;
37445;SDS011;23307;51.136;14.942;2022-11-15T12:49:52;20.77;;;16.90;;
37445;SDS011;23307;51.136;14.942;2022-11-15T12:52:18;21.73;;;17.52;;
37445;SDS011;23307;51.136;14.942;2022-11-15T12:54:52;20.67;;;17.30;;
37445;SDS011;23307;51.136;14.942;2022-11-15T13:02:40;22.48;;;17.85;;
37445;SDS011;23307;51.136;14.942;2022-11-15T13:25:48;25.83;;;20.38;;
37445;SDS011;23307;51.136;14.942;2022-11-15T13:33:53;24.65;;;20.20;;
37445;SDS011;23307;51.136;14.942;2022-11-15T13:36:27;25.60;;;19.50;;
37445;SDS011;23307;51.136;14.942;2022-11-15T13:39:03;25.73;;;20.65;;
37445;SDS011;23307;51.136;14.942;2022-11-15T13:41:33;25.52;;;21.08;;
37445;SDS011;23307;51.136;14.942;2022-11-15T13:44:01;26.90;;;21.17;;
37445;SDS011;23307;51.136;14.942;2022-11-15T13:46:29;25.65;;;20.52;;
37445;SDS011;23307;51.136;14.942;2022-11-15T13:49:05;27.88;;;21.45;;
37445;SDS011;23307;51.136;14.942;2022-11-15T13:56:42;27.25;;;20.10;;
37445;SDS011;23307;51.136;14.942;2022-11-15T13:59:14;26.15;;;20.48;;
37445;SDS011;23307;51.136;14.942;2022-11-15T14:01:46;28.85;;;21.73;;
37445;SDS011;23307;51.136;14.942;2022-11-15T14:04:12;28.85;;;22.10;;
37445;SDS011;23307;51.136;14.942;2022-11-15T14:06:44;30.17;;;22.40;;
37445;SDS011;23307;51.136;14.942;2022-11-15T14:12:20;31.25;;;21.35;;
37445;SDS011;23307;51.136;14.942;2022-11-15T14:14:46;31.23;;;23.38;;
37445;SDS011;23307;51.136;14.942;2022-11-15T14:17:33;28.55;;;21.88;;
37445;SDS011;23307;51.136;14.942;2022-11-15T14:20:00;31.95;;;22.13;;
37445;SDS011;23307;51.136;14.942;2022-11-15T14:22:27;31.40;;;22.77;;
37445;SDS011;23307;51.136;14.942;2022-11-15T14:27:37;31.75;;;23.67;;
37445;SDS011;23307;51.136;14.942;2022-11-15T14:30:04;33.22;;;24.05;;
37445;SDS011;23307;51.136;14.942;2022-11-15T14:32:37;33.53;;;24.08;;
37445;SDS011;23307;51.136;14.942;2022-11-15T14:35:15;32.15;;;23.15;;
37445;SDS011;23307;51.136;14.942;2022-11-15T14:37:45;33.75;;;23.70;;
37445;SDS011;23307;51.136;14.942;2022-11-15T14:40:15;31.02;;;22.85;;
37445;SDS011;23307;51.136;14.942;2022-11-15T14:42:43;33.15;;;23.60;;
37445;SDS011;23307;51.136;14.942;2022-11-15T14:45:17;33.70;;;25.15;;
37445;SDS011;23307;51.136;14.942;2022-11-15T14:47:44;35.42;;;25.92;;
37445;SDS011;23307;51.136;14.942;2022-11-15T14:50:17;33.15;;;24.17;;
37445;SDS011;23307;51.136;14.942;2022-11-15T14:52:44;34.47;;;25.25;;
37445;SDS011;23307;51.136;14.942;2022-11-15T14:55:20;33.80;;;24.95;;
37445;SDS011;23307;51.136;14.942;2022-11-15T14:57:56;35.35;;;25.75;;
37445;SDS011;23307;51.136;14.942;2022-11-15T15:00:21;36.17;;;25.52;;
37445;SDS011;23307;51.136;14.942;2022-11-15T15:02:47;37.97;;;25.75;;
37445;SDS011;23307;51.136;14.942;2022-11-15T15:05:18;34.35;;;25.13;;
37445;SDS011;23307;51.136;14.942;2022-11-15T15:07:45;35.97;;;25.50;;
37445;SDS011;23307;51.136;14.942;2022-11-15T15:10:12;35.42;;;26.52;;
37445;SDS011;23307;51.136;14.942;2022-11-15T15:12:38;36.35;;;26.40;;
37445;SDS011;23307;51.136;14.942;2022-11-15T15:15:04;36.78;;;25.95;;
37445;SDS011;23307;51.136;14.942;2022-11-15T15:17:30;34.70;;;24.70;;
37445;SDS011;23307;51.136;14.942;2022-11-15T15:19:56;34.85;;;25.85;;
37445;SDS011;23307;51.136;14.942;2022-11-15T15:22:29;45.60;;;30.73;;
37445;SDS011;23307;51.136;14.942;2022-11-15T15:24:56;41.33;;;28.50;;
37445;SDS011;23307;51.136;14.942;2022-11-15T15:27:21;34.92;;;24.55;;
37445;SDS011;23307;51.136;14.942;2022-11-15T15:29:47;36.30;;;26.67;;
37445;SDS011;23307;51.136;14.942;2022-11-15T15:32:12;39.95;;;27.25;;
37445;SDS011;23307;51.136;14.942;2022-11-15T15:34:38;39.63;;;26.85;;
37445;SDS011;23307;51.136;14.942;2022-11-15T15:37:08;36.88;;;25.95;;
37445;SDS011;23307;51.136;14.942;2022-11-15T15:39:44;38.25;;;27.15;;
37445;SDS011;23307;51.136;14.942;2022-11-15T15:42:09;34.53;;;24.38;;
37445;SDS011;23307;51.136;14.942;2022-11-15T15:44:35;36.72;;;26.48;;
37445;SDS011;23307;51.136;14.942;2022-11-15T15:47:00;34.58;;;24.70;;
37445;SDS011;23307;51.136;14.942;2022-11-15T15:49:26;37.20;;;26.02;;
37445;SDS011;23307;51.136;14.942;2022-11-15T15:51:51;40.70;;;27.20;;
37445;SDS011;23307;51.136;14.942;2022-11-15T15:54:17;37.45;;;26.05;;
37445;SDS011;23307;51.136;14.942;2022-11-15T15:56:42;41.13;;;27.05;;
37445;SDS011;23307;51.136;14.942;2022-11-15T15:59:08;38.20;;;26.35;;
37445;SDS011;23307;51.136;14.942;2022-11-15T16:01:33;40.47;;;28.02;;
37445;SDS011;23307;51.136;14.942;2022-11-15T16:03:59;41.13;;;27.08;;
37445;SDS011;23307;51.136;14.942;2022-11-15T16:06:35;38.65;;;27.25;;
37445;SDS011;23307;51.136;14.942;2022-11-15T16:09:06;40.28;;;26.98;;
37445;SDS011;23307;51.136;14.942;2022-11-15T16:11:34;46.85;;;29.88;;
37445;SDS011;23307;51.136;14.942;2022-11-15T16:13:59;41.90;;;26.38;;
37445;SDS011;23307;51.136;14.942;2022-11-15T16:16:28;47.85;;;31.77;;
37445;SDS011;23307;51.136;14.942;2022-11-15T16:18:54;39.67;;;27.27;;
37445;SDS011;23307;51.136;14.942;2022-11-15T16:21:19;40.53;;;26.33;;
37445;SDS011;23307;51.136;14.942;2022-11-15T16:23:45;39.03;;;26.60;;
37445;SDS011;23307;51.136;14.942;2022-11-15T16:26:14;39.10;;;27.48;;
37445;SDS011;23307;51.136;14.942;2022-11-15T16:28:48;39.58;;;27.13;;
37445;SDS011;23307;51.136;14.942;2022-11-15T16:31:14;40.53;;;26.77;;
37445;SDS011;23307;51.136;14.942;2022-11-15T16:33:41;41.17;;;27.10;;